Participated 3 times
Between 2002 and 2007
Cristian Moreni, Italy
Tour de France 2026 starts from Barcelona, Spain in

Stats and Facts from
Tour de France.

2026   2025   2024   2023  2022  2021  2020  2019   2018  2017   2016   2015  2014  2013   2012   2011  2010   2009   2008   2007   2006   2005   2004   2003   2002   2001   2000   1999   1998   1997  1996   1995   1994   1993   1992  1991   1990   1989   1988   1987   1986   1985   1984   1983  1982  1981   1980   1979  1978  1977   1976  1975  1974  1973   1972   1971   1970  1969   1968   1967   1966   1965  1964  1963   1962   1961   1960   1959   1958   1957  1956   1955   1954   1953   1952  1951  1950  1949   1948  1947  1939   1938   1937   1936   1935   1934   1933  1932   1931   1930  1929   1928   1927   1926  1925  1924  1923   1922   1921   1920   1919  1914   1913   1912   1911   1910  1909   1908   1907   1906  1905  1904   1903 

Tourstats
Sitemap

After stage 21 - 2025:
 16451 starters.
  5463 different riders.
  689 teams.
  2398 stages.
  470 restdays.
  466506.50 km.
  5925 abandoned riders.

Click map for 1951 route.
Facts from Tour de France 1951 Additional info and images from 1951.
  |   Stages.  |   Stage winners.  |   Days in jerseys.  |   Teams.  |   All riders.  |   All riders by age.  |   All riders from.  |  

  |   Rookies.  |   Withdrawls.  |   Average speed.  |   GC.  |   Polka  |   Green  |   White  |   Summits. (In tour)  |   Miscellaneous.  |  

Stage 17 on July 22nd. 1951
Pick a stage:  1  2  3  4  5  6  7  8  9  10  11  12  13  14  15  16  17  18  19  20  21  22  23  24  

After stage 17:    Hugo Koblet  
  MontpellierAvignon | Dist: 224.00km. | Winner: Louison Bobet

Podium
1  Mont Ventoux Lucien Lazaridesafter164.00 km.


Average speed for all riders in stage:  29,384 km./hr.

1
 Louison Bobet  France07h 24' 44"=30,220  km/h

2
 Pierre Barbotin  France07h 25' 34"+  00:00:50 =30,164  km/h

3
 Gino Bartali  Italy07h 25' 40"+  00:00:56 =30,157  km/h

4  Raphaël Geminiani  France07h 25' 40"+  00:00:56 =30,157  km/h

5  Hugo Koblet  Switzerland07h 25' 40"+  00:00:56 =30,157  km/h

6  Lucien Lazarides  France07h 25' 40"+  00:00:56 =30,157  km/h

7  Stan Ockers  Belgium07h 25' 59"+  00:01:15 =30,136  km/h

8  Alois De Hertog  Belgium07h 26' 10"+  00:01:26 =30,123  km/h

9  Eduard Van Ende  Belgium07h 26' 10"+  00:01:26 =30,123  km/h

10  Adolphe Deledda  Est-Sud Est07h 29' 34"+  00:04:50 =29,895  km/h

11  Roger Decock  Belgium07h 29' 34"+  00:04:50 =29,895  km/h

12  Jacques Marinelli  Île-de-France07h 29' 34"+  00:04:50 =29,895  km/h

13  Pierre Cogan  Ouest-Sud Ouest07h 29' 34"+  00:04:50 =29,895  km/h

14  Nello Lauredi  France07h 29' 34"+  00:04:50 =29,895  km/h

14  José Serra Gil  Spain07h 29' 34"+  00:04:50 =29,895  km/h

14  Vincent Vitetta  Est-Sud Est07h 29' 34"+  00:04:50 =29,895  km/h

14  Jean-Apotre Lazarides  France07h 29' 34"+  00:04:50 =29,895  km/h

14  Georges Aeschlimann  Switzerland07h 29' 34"+  00:04:50 =29,895  km/h

14  Marcel Verschueren  Belgium07h 29' 34"+  00:04:50 =29,895  km/h

14  Louis Deprez  Île-de-France07h 29' 34"+  00:04:50 =29,895  km/h

14  André Labeylie  Île-de-France07h 29' 34"+  00:04:50 =29,895  km/h

14  Pierre Brambilla  Est-Sud Est07h 29' 34"+  00:04:50 =29,895  km/h

23  Luciano Pezzi  Italy07h 30' 30"+  00:05:46 =29,834  km/h

24  Raoul Remy  France07h 30' 30"+  00:05:46 =29,834  km/h

25  Fiorenzo Magni  Italy07h 30' 30"+  00:05:46 =29,834  km/h

26  Jean-Baptiste Dotto  Est-Sud Est07h 30' 30"+  00:05:46 =29,834  km/h

26  Bernard Gauthier  France07h 30' 30"+  00:05:46 =29,834  km/h

26  Bernardo Ruíz  Spain07h 30' 30"+  00:05:46 =29,834  km/h

26  Marcel Huber  Switzerland07h 30' 30"+  00:05:46 =29,834  km/h

26  Fausto Coppi  Italy07h 30' 30"+  00:05:46 =29,834  km/h

26  Franco Franchi  Italy07h 30' 30"+  00:05:46 =29,834  km/h

26  Serifano Biagioni  Italy07h 30' 30"+  00:05:46 =29,834  km/h

26  Jean-Marie Goasmat  Ouest-Sud Ouest07h 30' 30"+  00:05:46 =29,834  km/h

34  Germain Derycke  Belgium07h 34' 11"+  00:09:27 =29,592  km/h

35  Marcel De Mulder  Belgium07h 34' 11"+  00:09:27 =29,592  km/h

36  Gino Sciardis  Île-de-France07h 36' 41"+  00:11:57 =29,430  km/h

37  Jean Diederich  Luxembourg07h 36' 41"+  00:11:57 =29,430  km/h

38  Georges Meunier  Ouest-Sud Ouest07h 36' 41"+  00:11:57 =29,430  km/h

39  Gottfried Weilenmann  Switzerland07h 36' 41"+  00:11:57 =29,430  km/h

40  Armand Baeyens  Belgium07h 36' 41"+  00:11:57 =29,430  km/h

41  Andrea Carrea  Italy07h 36' 41"+  00:11:57 =29,430  km/h

42  Paul Giguet  Est-Sud Est07h 36' 41"+  00:11:57 =29,430  km/h

43  Virgilio Salimbeni  Italy07h 36' 41"+  00:11:57 =29,430  km/h

44  Joseph Morvan  Ouest-Sud Ouest07h 40' 14"+  00:15:30 =29,203  km/h

45  Roger Leveque  Ouest-Sud Ouest07h 40' 14"+  00:15:30 =29,203  km/h

46  Hilaire Couvreur  Belgium07h 40' 14"+  00:15:30 =29,203  km/h

47  Maurice Diot  Paris07h 40' 14"+  00:15:30 =29,203  km/h

48  André Rosseel  Belgium07h 40' 14"+  00:15:30 =29,203  km/h

49  Hans Sommer  Switzerland07h 40' 14"+  00:15:30 =29,203  km/h

50  Giuseppe Mirando  Est-Sud Est07h 40' 39"+  00:15:55 =29,176  km/h

51  Angelo Colinelli  Est-Sud Est07h 40' 39"+  00:15:55 =29,176  km/h

52  Miguel Gual Bauza  Spain07h 40' 39"+  00:15:55 =29,176  km/h

53  Gilbert Bauvin  Est-Sud Est07h 40' 39"+  00:15:55 =29,176  km/h

54  Louis Caput  Paris07h 42' 27"+  00:17:43 =29,063  km/h

55  Edouard Muller  France07h 42' 27"+  00:17:43 =29,063  km/h

56  Francisco Masip  Spain07h 42' 27"+  00:17:43 =29,063  km/h

57  Dalmácio Langarica  Spain07h 42' 27"+  00:17:43 =29,063  km/h

58  Robert Castelin  Est-Sud Est07h 42' 27"+  00:17:43 =29,063  km/h

59  Lucien Teisseire  France07h 42' 27"+  00:17:43 =29,063  km/h

60  Roger Walkowiak  Ouest-Sud Ouest07h 42' 27"+  00:17:43 =29,063  km/h

61  Jean Robic  Paris07h 42' 27"+  00:17:43 =29,063  km/h

62  Abdel-Kader Zaaf  North Africa07h 45' 02"+  00:20:18 =28,901  km/h

63  Alois Vansteenkiste  Belgium07h 45' 02"+  00:20:18 =28,901  km/h

64  Jean-Louis Carle  Paris07h 45' 02"+  00:20:18 =28,901  km/h

65  Jean Gueguen  France07h 53' 26"+  00:28:42 =28,388  km/h

66  Emile Baffert  Est-Sud Est07h 53' 26"+  00:28:42 =28,388  km/h

67  Jean Baldassari  France07h 53' 26"+  00:28:42 =28,388  km/h

68  Willy Kemp  Luxembourg07h 53' 26"+  00:28:42 =28,388  km/h

69  Leo Weilenmann  Switzerland07h 53' 26"+  00:28:42 =28,388  km/h

70  Manuel Rodriguez  Spain07h 53' 26"+  00:28:42 =28,388  km/h

71  Ettore Milano  Italy07h 53' 26"+  00:28:42 =28,388  km/h

72  Henri Kass  Luxembourg07h 53' 26"+  00:28:42 =28,388  km/h

73  Roger Buchonnet  Est-Sud Est07h 53' 26"+  00:28:42 =28,388  km/h

74  Jean Mayen  North Africa07h 58' 28"+  00:33:44 =28,090  km/h

75  Jean Delahaye  Île-de-France08h 13' 11"+  00:48:27 =27,252  km/h


Todays birthdays.

1869 • Adolphe Dorion
1884 • Achille Germain
1886 • Emile Eigeldinger
1896 • Andre Léger
1907 • Frans Dictus
1921 • Alberto Ghirardi
1934 • Joseph Planckaert
1945 • Leif Mortensen
1952 • Alex Van Linden
1960 • Roberto Bressan
1960 • Bernard Chesneau
1962 • Paul Watson
1963 • Juan Rozas
1965 • Jean-Pierre Heynderickx
1967 • José-Manuel Oliveira
1970 • Wilfried Nelissen
1980 • Nick Nuyens
1996 • Jai Hindley

 

Optimized for Chrome - Edge
and Opera browsers.